sensor_id;sensor_type;location;lat;lon;timestamp;P1;durP1;ratioP1;P2;durP2;ratioP2
61291;SDS011;47165;42.664;23.368;2023-04-01T00:02:05;12.75;;;5.25;;
61291;SDS011;47165;42.664;23.368;2023-04-01T00:04:31;10.15;;;4.47;;
61291;SDS011;47165;42.664;23.368;2023-04-01T00:06:57;7.43;;;4.57;;
61291;SDS011;47165;42.664;23.368;2023-04-01T00:09:23;16.77;;;5.25;;
61291;SDS011;47165;42.664;23.368;2023-04-01T00:11:48;9.18;;;4.18;;
61291;SDS011;47165;42.664;23.368;2023-04-01T00:14:13;6.88;;;3.80;;
61291;SDS011;47165;42.664;23.368;2023-04-01T00:16:39;9.23;;;3.72;;
61291;SDS011;47165;42.664;23.368;2023-04-01T00:19:05;5.80;;;3.65;;
61291;SDS011;47165;42.664;23.368;2023-04-01T00:21:30;7.05;;;3.47;;
61291;SDS011;47165;42.664;23.368;2023-04-01T00:23:56;9.73;;;3.63;;
61291;SDS011;47165;42.664;23.368;2023-04-01T00:26:22;6.82;;;3.03;;
61291;SDS011;47165;42.664;23.368;2023-04-01T00:28:49;7.80;;;3.55;;
61291;SDS011;47165;42.664;23.368;2023-04-01T00:31:16;7.15;;;3.25;;
61291;SDS011;47165;42.664;23.368;2023-04-01T00:33:41;13.38;;;4.75;;
61291;SDS011;47165;42.664;23.368;2023-04-01T00:36:08;7.03;;;3.58;;
61291;SDS011;47165;42.664;23.368;2023-04-01T00:38:35;6.55;;;3.40;;
61291;SDS011;47165;42.664;23.368;2023-04-01T00:41:02;4.55;;;3.17;;
61291;SDS011;47165;42.664;23.368;2023-04-01T00:43:28;9.23;;;3.50;;
61291;SDS011;47165;42.664;23.368;2023-04-01T00:45:54;5.57;;;2.80;;
61291;SDS011;47165;42.664;23.368;2023-04-01T00:48:20;5.57;;;2.70;;
61291;SDS011;47165;42.664;23.368;2023-04-01T00:50:51;5.22;;;2.67;;
61291;SDS011;47165;42.664;23.368;2023-04-01T00:53:21;10.13;;;3.45;;
61291;SDS011;47165;42.664;23.368;2023-04-01T00:55:53;7.18;;;3.83;;
61291;SDS011;47165;42.664;23.368;2023-04-01T00:58:24;6.50;;;3.15;;
61291;SDS011;47165;42.664;23.368;2023-04-01T01:00:52;9.68;;;3.25;;
61291;SDS011;47165;42.664;23.368;2023-04-01T01:03:20;6.43;;;3.67;;
61291;SDS011;47165;42.664;23.368;2023-04-01T01:06:07;5.70;;;2.78;;
61291;SDS011;47165;42.664;23.368;2023-04-01T01:08:57;7.55;;;4.50;;
61291;SDS011;47165;42.664;23.368;2023-04-01T01:11:29;6.75;;;3.55;;
61291;SDS011;47165;42.664;23.368;2023-04-01T01:14:06;12.00;;;2.92;;
61291;SDS011;47165;42.664;23.368;2023-04-01T01:16:36;3.30;;;2.35;;
61291;SDS011;47165;42.664;23.368;2023-04-01T01:27:24;7.25;;;3.28;;
61291;SDS011;47165;42.664;23.368;2023-04-01T01:32:45;5.25;;;2.33;;
61291;SDS011;47165;42.664;23.368;2023-04-01T01:35:33;3.72;;;2.30;;
61291;SDS011;47165;42.664;23.368;2023-04-01T01:38:04;4.55;;;2.33;;
61291;SDS011;47165;42.664;23.368;2023-04-01T01:40:33;4.32;;;2.13;;
61291;SDS011;47165;42.664;23.368;2023-04-01T01:43:03;4.57;;;2.25;;
61291;SDS011;47165;42.664;23.368;2023-04-01T01:45:32;3.28;;;2.00;;
61291;SDS011;47165;42.664;23.368;2023-04-01T01:48:01;3.60;;;1.88;;
61291;SDS011;47165;42.664;23.368;2023-04-01T01:50:30;4.78;;;2.00;;
61291;SDS011;47165;42.664;23.368;2023-04-01T01:53:00;2.53;;;1.70;;
61291;SDS011;47165;42.664;23.368;2023-04-01T01:55:34;1.95;;;1.50;;
61291;SDS011;47165;42.664;23.368;2023-04-01T01:58:06;3.20;;;1.30;;
61291;SDS011;47165;42.664;23.368;2023-04-01T02:00:41;1.92;;;1.42;;
61291;SDS011;47165;42.664;23.368;2023-04-01T02:03:12;3.00;;;1.52;;
61291;SDS011;47165;42.664;23.368;2023-04-01T02:05:38;3.20;;;1.75;;
61291;SDS011;47165;42.664;23.368;2023-04-01T02:08:15;7.35;;;2.03;;
61291;SDS011;47165;42.664;23.368;2023-04-01T02:10:45;5.15;;;1.80;;
61291;SDS011;47165;42.664;23.368;2023-04-01T02:13:22;5.70;;;1.80;;
61291;SDS011;47165;42.664;23.368;2023-04-01T02:16:00;5.53;;;2.22;;
61291;SDS011;47165;42.664;23.368;2023-04-01T02:18:33;2.25;;;1.52;;
61291;SDS011;47165;42.664;23.368;2023-04-01T02:21:01;3.70;;;2.22;;
61291;SDS011;47165;42.664;23.368;2023-04-01T02:23:30;3.85;;;2.08;;
61291;SDS011;47165;42.664;23.368;2023-04-01T02:25:59;4.28;;;1.92;;
61291;SDS011;47165;42.664;23.368;2023-04-01T02:28:25;5.35;;;2.30;;
61291;SDS011;47165;42.664;23.368;2023-04-01T02:30:53;3.22;;;1.88;;
61291;SDS011;47165;42.664;23.368;2023-04-01T02:33:19;3.53;;;1.50;;
61291;SDS011;47165;42.664;23.368;2023-04-01T02:35:45;6.68;;;2.15;;
61291;SDS011;47165;42.664;23.368;2023-04-01T02:38:11;3.03;;;1.92;;
61291;SDS011;47165;42.664;23.368;2023-04-01T02:40:43;6.20;;;2.75;;
61291;SDS011;47165;42.664;23.368;2023-04-01T02:43:10;6.20;;;2.22;;
61291;SDS011;47165;42.664;23.368;2023-04-01T02:45:36;3.92;;;1.88;;
61291;SDS011;47165;42.664;23.368;2023-04-01T02:48:03;3.67;;;1.58;;
61291;SDS011;47165;42.664;23.368;2023-04-01T02:50:28;6.55;;;2.05;;
61291;SDS011;47165;42.664;23.368;2023-04-01T02:52:54;3.70;;;2.33;;
61291;SDS011;47165;42.664;23.368;2023-04-01T02:55:19;5.85;;;2.13;;
61291;SDS011;47165;42.664;23.368;2023-04-01T02:57:44;4.70;;;2.20;;
61291;SDS011;47165;42.664;23.368;2023-04-01T03:00:10;4.82;;;2.38;;
61291;SDS011;47165;42.664;23.368;2023-04-01T03:02:37;3.92;;;1.98;;
61291;SDS011;47165;42.664;23.368;2023-04-01T03:05:04;5.18;;;1.95;;
61291;SDS011;47165;42.664;23.368;2023-04-01T03:07:31;3.90;;;1.85;;
61291;SDS011;47165;42.664;23.368;2023-04-01T03:09:56;7.15;;;2.50;;
61291;SDS011;47165;42.664;23.368;2023-04-01T03:12:22;2.85;;;1.60;;
61291;SDS011;47165;42.664;23.368;2023-04-01T03:14:47;6.63;;;2.47;;
61291;SDS011;47165;42.664;23.368;2023-04-01T03:17:12;3.45;;;1.90;;
61291;SDS011;47165;42.664;23.368;2023-04-01T03:19:38;9.70;;;3.53;;
61291;SDS011;47165;42.664;23.368;2023-04-01T03:22:03;7.90;;;3.70;;
61291;SDS011;47165;42.664;23.368;2023-04-01T03:24:29;6.45;;;2.75;;
61291;SDS011;47165;42.664;23.368;2023-04-01T03:26:54;7.80;;;3.67;;
61291;SDS011;47165;42.664;23.368;2023-04-01T03:29:20;2.88;;;1.90;;
61291;SDS011;47165;42.664;23.368;2023-04-01T03:31:45;3.97;;;1.80;;
61291;SDS011;47165;42.664;23.368;2023-04-01T03:34:10;4.32;;;2.08;;
61291;SDS011;47165;42.664;23.368;2023-04-01T03:36:36;3.13;;;1.90;;
61291;SDS011;47165;42.664;23.368;2023-04-01T03:39:01;3.20;;;2.10;;
61291;SDS011;47165;42.664;23.368;2023-04-01T03:41:28;4.90;;;2.10;;
61291;SDS011;47165;42.664;23.368;2023-04-01T03:43:54;3.88;;;2.42;;
61291;SDS011;47165;42.664;23.368;2023-04-01T03:46:19;6.43;;;1.90;;
61291;SDS011;47165;42.664;23.368;2023-04-01T03:48:46;5.10;;;2.05;;
61291;SDS011;47165;42.664;23.368;2023-04-01T03:51:12;7.40;;;2.97;;
61291;SDS011;47165;42.664;23.368;2023-04-01T03:53:37;4.07;;;2.95;;
61291;SDS011;47165;42.664;23.368;2023-04-01T03:56:03;4.80;;;2.40;;
61291;SDS011;47165;42.664;23.368;2023-04-01T03:58:32;4.45;;;2.88;;
61291;SDS011;47165;42.664;23.368;2023-04-01T04:00:57;7.40;;;2.70;;
61291;SDS011;47165;42.664;23.368;2023-04-01T04:03:23;5.50;;;3.35;;
61291;SDS011;47165;42.664;23.368;2023-04-01T04:05:48;5.68;;;2.90;;
61291;SDS011;47165;42.664;23.368;2023-04-01T04:08:14;6.45;;;2.15;;
61291;SDS011;47165;42.664;23.368;2023-04-01T04:10:41;6.43;;;2.28;;
61291;SDS011;47165;42.664;23.368;2023-04-01T04:13:07;7.68;;;3.10;;
61291;SDS011;47165;42.664;23.368;2023-04-01T04:15:33;5.25;;;2.63;;
61291;SDS011;47165;42.664;23.368;2023-04-01T04:17:58;5.72;;;2.83;;
61291;SDS011;47165;42.664;23.368;2023-04-01T04:20:24;5.63;;;3.42;;
61291;SDS011;47165;42.664;23.368;2023-04-01T04:22:50;3.15;;;2.42;;
61291;SDS011;47165;42.664;23.368;2023-04-01T04:25:15;4.15;;;2.17;;
61291;SDS011;47165;42.664;23.368;2023-04-01T04:27:40;4.30;;;2.35;;
61291;SDS011;47165;42.664;23.368;2023-04-01T04:30:07;5.05;;;2.50;;
61291;SDS011;47165;42.664;23.368;2023-04-01T04:32:34;3.20;;;2.00;;
61291;SDS011;47165;42.664;23.368;2023-04-01T04:34:59;3.72;;;2.17;;
61291;SDS011;47165;42.664;23.368;2023-04-01T04:37:25;3.65;;;1.92;;
61291;SDS011;47165;42.664;23.368;2023-04-01T04:39:51;3.22;;;1.90;;
61291;SDS011;47165;42.664;23.368;2023-04-01T04:42:16;6.13;;;2.17;;
61291;SDS011;47165;42.664;23.368;2023-04-01T04:44:42;3.28;;;1.85;;
61291;SDS011;47165;42.664;23.368;2023-04-01T04:47:07;3.25;;;2.10;;
61291;SDS011;47165;42.664;23.368;2023-04-01T04:49:33;3.00;;;1.92;;
61291;SDS011;47165;42.664;23.368;2023-04-01T04:51:58;3.92;;;2.15;;
61291;SDS011;47165;42.664;23.368;2023-04-01T04:54:24;5.20;;;1.98;;
61291;SDS011;47165;42.664;23.368;2023-04-01T04:56:52;9.40;;;2.03;;
61291;SDS011;47165;42.664;23.368;2023-04-01T04:59:18;3.85;;;1.90;;
61291;SDS011;47165;42.664;23.368;2023-04-01T05:01:43;5.45;;;2.22;;
61291;SDS011;47165;42.664;23.368;2023-04-01T05:04:09;3.78;;;1.63;;
61291;SDS011;47165;42.664;23.368;2023-04-01T05:06:35;5.13;;;1.98;;
61291;SDS011;47165;42.664;23.368;2023-04-01T05:09:00;4.13;;;1.88;;
61291;SDS011;47165;42.664;23.368;2023-04-01T05:11:25;4.80;;;2.42;;
61291;SDS011;47165;42.664;23.368;2023-04-01T05:13:51;5.78;;;2.38;;
61291;SDS011;47165;42.664;23.368;2023-04-01T05:16:17;3.33;;;1.98;;
61291;SDS011;47165;42.664;23.368;2023-04-01T05:18:45;5.60;;;2.70;;
61291;SDS011;47165;42.664;23.368;2023-04-01T05:21:12;3.75;;;2.13;;
61291;SDS011;47165;42.664;23.368;2023-04-01T05:23:38;5.07;;;2.45;;
61291;SDS011;47165;42.664;23.368;2023-04-01T05:26:08;10.50;;;3.63;;
61291;SDS011;47165;42.664;23.368;2023-04-01T05:28:36;9.82;;;3.63;;
61291;SDS011;47165;42.664;23.368;2023-04-01T05:31:03;6.63;;;2.63;;
61291;SDS011;47165;42.664;23.368;2023-04-01T05:33:29;5.25;;;2.90;;
61291;SDS011;47165;42.664;23.368;2023-04-01T05:35:56;3.38;;;2.72;;
61291;SDS011;47165;42.664;23.368;2023-04-01T05:38:22;5.90;;;2.60;;
61291;SDS011;47165;42.664;23.368;2023-04-01T05:40:47;5.75;;;2.83;;
61291;SDS011;47165;42.664;23.368;2023-04-01T05:43:12;4.32;;;1.95;;
61291;SDS011;47165;42.664;23.368;2023-04-01T05:45:38;3.88;;;2.17;;
61291;SDS011;47165;42.664;23.368;2023-04-01T05:48:04;7.43;;;3.72;;
61291;SDS011;47165;42.664;23.368;2023-04-01T05:50:30;7.57;;;2.75;;
61291;SDS011;47165;42.664;23.368;2023-04-01T05:52:56;4.20;;;2.20;;
61291;SDS011;47165;42.664;23.368;2023-04-01T05:55:21;7.05;;;2.72;;
61291;SDS011;47165;42.664;23.368;2023-04-01T05:57:47;4.38;;;2.33;;
61291;SDS011;47165;42.664;23.368;2023-04-01T06:00:14;2.83;;;2.20;;
61291;SDS011;47165;42.664;23.368;2023-04-01T06:02:40;4.18;;;2.38;;
61291;SDS011;47165;42.664;23.368;2023-04-01T06:07:36;4.40;;;2.00;;
61291;SDS011;47165;42.664;23.368;2023-04-01T06:10:01;3.80;;;2.20;;
61291;SDS011;47165;42.664;23.368;2023-04-01T06:15:17;2.42;;;1.80;;
61291;SDS011;47165;42.664;23.368;2023-04-01T06:24:02;2.63;;;1.70;;
61291;SDS011;47165;42.664;23.368;2023-04-01T06:29:39;4.05;;;1.52;;
61291;SDS011;47165;42.664;23.368;2023-04-01T06:40:30;3.40;;;2.08;;
61291;SDS011;47165;42.664;23.368;2023-04-01T06:45:53;7.47;;;2.90;;
61291;SDS011;47165;42.664;23.368;2023-04-01T06:56:38;6.05;;;3.38;;
61291;SDS011;47165;42.664;23.368;2023-04-01T06:59:25;7.78;;;3.03;;
61291;SDS011;47165;42.664;23.368;2023-04-01T07:01:59;4.78;;;2.47;;
61291;SDS011;47165;42.664;23.368;2023-04-01T07:07:24;5.45;;;2.88;;
61291;SDS011;47165;42.664;23.368;2023-04-01T07:09:52;9.45;;;2.90;;
61291;SDS011;47165;42.664;23.368;2023-04-01T07:15:12;4.53;;;2.53;;
61291;SDS011;47165;42.664;23.368;2023-04-01T07:17:44;4.25;;;2.45;;
61291;SDS011;47165;42.664;23.368;2023-04-01T07:20:29;4.18;;;2.47;;
61291;SDS011;47165;42.664;23.368;2023-04-01T07:22:58;7.15;;;3.25;;
61291;SDS011;47165;42.664;23.368;2023-04-01T07:25:27;3.15;;;1.85;;
61291;SDS011;47165;42.664;23.368;2023-04-01T07:27:58;3.67;;;2.20;;
61291;SDS011;47165;42.664;23.368;2023-04-01T07:30:39;3.92;;;2.47;;
61291;SDS011;47165;42.664;23.368;2023-04-01T07:36:00;2.92;;;1.98;;
61291;SDS011;47165;42.664;23.368;2023-04-01T07:38:34;3.67;;;2.20;;
61291;SDS011;47165;42.664;23.368;2023-04-01T07:41:15;5.20;;;2.28;;
61291;SDS011;47165;42.664;23.368;2023-04-01T07:46:39;9.10;;;2.78;;
61291;SDS011;47165;42.664;23.368;2023-04-01T07:49:25;6.35;;;2.92;;
61291;SDS011;47165;42.664;23.368;2023-04-01T07:52:04;3.90;;;2.15;;
61291;SDS011;47165;42.664;23.368;2023-04-01T07:57:19;1.52;;;1.02;;
61291;SDS011;47165;42.664;23.368;2023-04-01T08:00:13;4.78;;;2.08;;
61291;SDS011;47165;42.664;23.368;2023-04-01T08:05:55;3.80;;;2.15;;
61291;SDS011;47165;42.664;23.368;2023-04-01T08:14:00;3.05;;;2.13;;
61291;SDS011;47165;42.664;23.368;2023-04-01T08:22:29;3.72;;;1.98;;
61291;SDS011;47165;42.664;23.368;2023-04-01T08:25:02;3.90;;;1.88;;
61291;SDS011;47165;42.664;23.368;2023-04-01T08:27:45;3.63;;;1.73;;
61291;SDS011;47165;42.664;23.368;2023-04-01T08:30:17;6.88;;;2.03;;
61291;SDS011;47165;42.664;23.368;2023-04-01T08:33:05;4.55;;;1.88;;
61291;SDS011;47165;42.664;23.368;2023-04-01T08:36:29;4.63;;;2.75;;
61291;SDS011;47165;42.664;23.368;2023-04-01T08:38:42;2.40;;;1.70;;
61291;SDS011;47165;42.664;23.368;2023-04-01T08:41:33;2.45;;;1.73;;
61291;SDS011;47165;42.664;23.368;2023-04-01T08:44:10;5.00;;;2.70;;
61291;SDS011;47165;42.664;23.368;2023-04-01T08:55:22;2.42;;;1.70;;
61291;SDS011;47165;42.664;23.368;2023-04-01T09:28:33;4.82;;;2.78;;
61291;SDS011;47165;42.664;23.368;2023-04-01T09:44:36;4.03;;;1.92;;
61291;SDS011;47165;42.664;23.368;2023-04-01T09:53:14;4.40;;;2.22;;
61291;SDS011;47165;42.664;23.368;2023-04-01T10:05:05;3.75;;;1.73;;
61291;SDS011;47165;42.664;23.368;2023-04-01T10:18:34;3.88;;;2.13;;
61291;SDS011;47165;42.664;23.368;2023-04-01T10:26:40;4.85;;;2.47;;
61291;SDS011;47165;42.664;23.368;2023-04-01T10:34:54;9.50;;;1.88;;
61291;SDS011;47165;42.664;23.368;2023-04-01T10:37:34;4.93;;;2.63;;
61291;SDS011;47165;42.664;23.368;2023-04-01T10:51:21;8.20;;;3.50;;
61291;SDS011;47165;42.664;23.368;2023-04-01T10:56:43;4.32;;;2.35;;
61291;SDS011;47165;42.664;23.368;2023-04-01T10:59:15;7.97;;;2.92;;
61291;SDS011;47165;42.664;23.368;2023-04-01T11:11:17;4.82;;;2.08;;
61291;SDS011;47165;42.664;23.368;2023-04-01T11:42:01;2.80;;;1.40;;
61291;SDS011;47165;42.664;23.368;2023-04-01T11:59:05;3.38;;;1.17;;
61291;SDS011;47165;42.664;23.368;2023-04-01T12:01:47;7.75;;;1.98;;
61291;SDS011;47165;42.664;23.368;2023-04-01T12:04:27;4.25;;;2.13;;
61291;SDS011;47165;42.664;23.368;2023-04-01T12:07:08;2.00;;;1.17;;
61291;SDS011;47165;42.664;23.368;2023-04-01T12:22:00;2.22;;;1.55;;
61291;SDS011;47165;42.664;23.368;2023-04-01T12:35:20;1.20;;;0.75;;
61291;SDS011;47165;42.664;23.368;2023-04-01T12:43:35;3.17;;;1.15;;
61291;SDS011;47165;42.664;23.368;2023-04-01T12:56:03;2.15;;;1.02;;
61291;SDS011;47165;42.664;23.368;2023-04-01T13:03:47;2.97;;;1.45;;
61291;SDS011;47165;42.664;23.368;2023-04-01T13:20:02;3.58;;;1.50;;
61291;SDS011;47165;42.664;23.368;2023-04-01T13:27:40;2.10;;;1.15;;
61291;SDS011;47165;42.664;23.368;2023-04-01T13:35:41;0.75;;;0.55;;
61291;SDS011;47165;42.664;23.368;2023-04-01T13:43:48;1.40;;;0.82;;
61291;SDS011;47165;42.664;23.368;2023-04-01T13:49:48;1.95;;;1.08;;
61291;SDS011;47165;42.664;23.368;2023-04-01T14:11:01;9.75;;;5.20;;
61291;SDS011;47165;42.664;23.368;2023-04-01T14:19:11;12.55;;;6.80;;
61291;SDS011;47165;42.664;23.368;2023-04-01T14:38:35;2.80;;;1.75;;
61291;SDS011;47165;42.664;23.368;2023-04-01T14:41:16;6.63;;;2.50;;
61291;SDS011;47165;42.664;23.368;2023-04-01T14:43:54;9.55;;;4.15;;
61291;SDS011;47165;42.664;23.368;2023-04-01T14:46:34;3.65;;;2.22;;
61291;SDS011;47165;42.664;23.368;2023-04-01T14:49:37;5.05;;;2.10;;
61291;SDS011;47165;42.664;23.368;2023-04-01T14:52:16;6.50;;;2.47;;
61291;SDS011;47165;42.664;23.368;2023-04-01T14:54:46;5.03;;;2.42;;
61291;SDS011;47165;42.664;23.368;2023-04-01T14:57:16;4.20;;;2.72;;
61291;SDS011;47165;42.664;23.368;2023-04-01T15:10:43;9.40;;;5.22;;
61291;SDS011;47165;42.664;23.368;2023-04-01T15:16:32;9.45;;;5.28;;
61291;SDS011;47165;42.664;23.368;2023-04-01T15:20:01;13.70;;;6.18;;
61291;SDS011;47165;42.664;23.368;2023-04-01T15:24:46;7.28;;;3.35;;
61291;SDS011;47165;42.664;23.368;2023-04-01T15:32:51;3.75;;;2.40;;
61291;SDS011;47165;42.664;23.368;2023-04-01T15:43:41;8.77;;;4.35;;
61291;SDS011;47165;42.664;23.368;2023-04-01T15:49:00;8.65;;;4.82;;
61291;SDS011;47165;42.664;23.368;2023-04-01T16:14:07;2.97;;;1.70;;
61291;SDS011;47165;42.664;23.368;2023-04-01T16:22:34;2.67;;;1.42;;
61291;SDS011;47165;42.664;23.368;2023-04-01T16:25:29;1.53;;;1.40;;
61291;SDS011;47165;42.664;23.368;2023-04-01T16:28:13;4.18;;;1.92;;
61291;SDS011;47165;42.664;23.368;2023-04-01T16:30:56;2.25;;;1.52;;
61291;SDS011;47165;42.664;23.368;2023-04-01T16:33:35;1.75;;;1.10;;
61291;SDS011;47165;42.664;23.368;2023-04-01T16:41:24;5.25;;;3.58;;
61291;SDS011;47165;42.664;23.368;2023-04-01T16:43:57;3.92;;;2.03;;
61291;SDS011;47165;42.664;23.368;2023-04-01T16:46:39;1.17;;;0.80;;
61291;SDS011;47165;42.664;23.368;2023-04-01T16:54:31;1.52;;;1.13;;
61291;SDS011;47165;42.664;23.368;2023-04-01T16:59:36;1.63;;;1.13;;
61291;SDS011;47165;42.664;23.368;2023-04-01T17:15:28;1.80;;;0.88;;
61291;SDS011;47165;42.664;23.368;2023-04-01T17:18:11;1.08;;;0.52;;
61291;SDS011;47165;42.664;23.368;2023-04-01T17:24:27;2.58;;;1.10;;
61291;SDS011;47165;42.664;23.368;2023-04-01T17:38:56;1.20;;;1.10;;
61291;SDS011;47165;42.664;23.368;2023-04-01T17:50:02;1.13;;;0.80;;
61291;SDS011;47165;42.664;23.368;2023-04-01T18:22:41;0.68;;;0.68;;
61291;SDS011;47165;42.664;23.368;2023-04-01T18:39:03;1.80;;;1.30;;
61291;SDS011;47165;42.664;23.368;2023-04-01T18:52:48;2.35;;;1.70;;
61291;SDS011;47165;42.664;23.368;2023-04-01T18:55:31;1.00;;;0.90;;
61291;SDS011;47165;42.664;23.368;2023-04-01T19:06:18;1.35;;;1.25;;
61291;SDS011;47165;42.664;23.368;2023-04-01T19:08:48;1.13;;;0.93;;
61291;SDS011;47165;42.664;23.368;2023-04-01T19:22:28;2.00;;;1.23;;
61291;SDS011;47165;42.664;23.368;2023-04-01T19:28:17;1.23;;;1.13;;
61291;SDS011;47165;42.664;23.368;2023-04-01T19:30:56;0.70;;;0.60;;
61291;SDS011;47165;42.664;23.368;2023-04-01T19:39:26;0.98;;;0.98;;
61291;SDS011;47165;42.664;23.368;2023-04-01T19:42:08;1.25;;;1.02;;
61291;SDS011;47165;42.664;23.368;2023-04-01T19:45:32;1.30;;;1.20;;
61291;SDS011;47165;42.664;23.368;2023-04-01T19:51:02;1.50;;;1.30;;
61291;SDS011;47165;42.664;23.368;2023-04-01T19:53:40;0.75;;;0.65;;
61291;SDS011;47165;42.664;23.368;2023-04-01T19:56:17;0.98;;;0.88;;
61291;SDS011;47165;42.664;23.368;2023-04-01T20:01:39;1.05;;;0.90;;
61291;SDS011;47165;42.664;23.368;2023-04-01T20:04:20;1.42;;;1.10;;
61291;SDS011;47165;42.664;23.368;2023-04-01T20:07:06;0.90;;;0.70;;
61291;SDS011;47165;42.664;23.368;2023-04-01T20:09:50;0.65;;;0.57;;
61291;SDS011;47165;42.664;23.368;2023-04-01T20:17:50;1.00;;;0.90;;
61291;SDS011;47165;42.664;23.368;2023-04-01T20:20:19;0.75;;;0.60;;
61291;SDS011;47165;42.664;23.368;2023-04-01T20:25:32;2.38;;;0.70;;
61291;SDS011;47165;42.664;23.368;2023-04-01T20:39:08;1.48;;;1.15;;
61291;SDS011;47165;42.664;23.368;2023-04-01T21:24:35;0.15;;;0.15;;
61291;SDS011;47165;42.664;23.368;2023-04-01T21:35:58;0.50;;;0.40;;
61291;SDS011;47165;42.664;23.368;2023-04-01T21:38:41;0.35;;;0.30;;
61291;SDS011;47165;42.664;23.368;2023-04-01T21:58:02;0.98;;;0.80;;
61291;SDS011;47165;42.664;23.368;2023-04-01T22:06:37;2.90;;;0.85;;
61291;SDS011;47165;42.664;23.368;2023-04-01T22:11:54;0.55;;;0.55;;
61291;SDS011;47165;42.664;23.368;2023-04-01T22:14:46;0.68;;;0.52;;
61291;SDS011;47165;42.664;23.368;2023-04-01T22:20:40;1.40;;;0.75;;
61291;SDS011;47165;42.664;23.368;2023-04-01T22:32:20;0.28;;;0.25;;
61291;SDS011;47165;42.664;23.368;2023-04-01T22:34:53;1.50;;;0.70;;
61291;SDS011;47165;42.664;23.368;2023-04-01T22:43:04;1.90;;;1.05;;
61291;SDS011;47165;42.664;23.368;2023-04-01T22:48:47;0.28;;;0.28;;
61291;SDS011;47165;42.664;23.368;2023-04-01T22:51:22;0.68;;;0.50;;
61291;SDS011;47165;42.664;23.368;2023-04-01T22:57:05;1.98;;;1.08;;
61291;SDS011;47165;42.664;23.368;2023-04-01T22:59:39;0.85;;;0.77;;
61291;SDS011;47165;42.664;23.368;2023-04-01T23:02:13;4.13;;;1.52;;
61291;SDS011;47165;42.664;23.368;2023-04-01T23:04:43;3.72;;;1.92;;
61291;SDS011;47165;42.664;23.368;2023-04-01T23:07:34;1.85;;;0.90;;
61291;SDS011;47165;42.664;23.368;2023-04-01T23:10:13;1.40;;;1.30;;
61291;SDS011;47165;42.664;23.368;2023-04-01T23:12:44;0.57;;;0.57;;
61291;SDS011;47165;42.664;23.368;2023-04-01T23:15:11;1.70;;;0.85;;
61291;SDS011;47165;42.664;23.368;2023-04-01T23:26:10;1.10;;;0.40;;
61291;SDS011;47165;42.664;23.368;2023-04-01T23:28:57;0.35;;;0.28;;
61291;SDS011;47165;42.664;23.368;2023-04-01T23:31:37;0.32;;;0.32;;
61291;SDS011;47165;42.664;23.368;2023-04-01T23:36:43;0.15;;;0.10;;
61291;SDS011;47165;42.664;23.368;2023-04-01T23:42:30;1.27;;;0.43;;
61291;SDS011;47165;42.664;23.368;2023-04-01T23:45:24;2.13;;;0.45;;
61291;SDS011;47165;42.664;23.368;2023-04-01T23:47:49;0.40;;;0.20;;
61291;SDS011;47165;42.664;23.368;2023-04-01T23:50:20;0.30;;;0.30;;
61291;SDS011;47165;42.664;23.368;2023-04-01T23:52:52;0.38;;;0.38;;
61291;SDS011;47165;42.664;23.368;2023-04-01T23:55:25;0.20;;;0.20;;
61291;SDS011;47165;42.664;23.368;2023-04-01T23:58:14;0.20;;;0.20;;
